Pagrindinis puslapis
METAR-TAF:

METAR-TAF

Oro uostai :

Al-Hasa, Saudo Arabija

platuma: 25-18N, ilguma: 049-29E, Aukštis: 179 m

Dabartinis oras

Ataskaita buvo paskelbta 1 valandą ir 22 minutes, ne 22:00 UTC
Vėjas 11 kt iš Vakarų/Šiaurės Vakarų
Temperatūra 29°C
Drėgmė 14%
Slėgis 1005 hPa
Matomumas 10 km arba daugiau
nėra debesų žemiau 1500 m ir nėra kamuolinių lietaus debesų

METAR: OEAH 242200Z 30011KT CAVOK 29/M01 Q1005 NOSIG

Laikas: 02:22 (23:22 UTC)

Prognozė

Ataskaita buvo paskelbta 8 valandos ir 22 minutes, ne 15:00 UTC
Prognozė galioja nuo 24 metu 15 UTC su 25 metu 18 UTC
Vėjas 12 kt iš Šiaurės/Šiaurės Vakarų
Matomumas: 7000 m
Tapsmas
nuo 25 metu 02 UTC su 25 metu 04 UTC
Vėjas 15 kt iš Šiaurės/Šiaurės Vakarų su gūsio iki 25 kt
Matomumas: 4000 m
Dulkes pustymas
Tikimybė 30% :
Laikinai
nuo 25 metu 05 UTC su 25 metu 18 UTC
Matomumas: 1000 m

TAF: OEAH 241500Z 2415/2518 33012KT 7000 NSC BECMG 2502/2504 34015G25KT 4000 BLDU PROB30 TEMPO 2505/2518 1000

Orai ataskaitas ir orų prognozės (METAR, TAF).

turimą stotys yra geltonos ir raudonos taškus žemėlapyje.

Perkelti pele per norėdami pamatyti stoties vardą.

Tada spustelėkite, norėdami matyti oro stebėjimo ir prognozės.

Norėdami pakeisti žemėlapį: spustelėkite ant žalios mygtukų su juodo kryžiaus žemyn,; žalią mygtuką su brūkšneliu, jei norite nutolinti; arba žalių rodyklių gretimoms žemėlapius.


METAR-TAF: